Time;durP1;ratioP1;P1;durP2;ratioP2;P2;SDS_P1;SDS_P2;PMS_P1;PMS_P2;Temp;Humidity;BMP_temperature;BMP_pressure;BME280_temperature;BME280_humidity;BME280_pressure;Samples;Min_cycle;Max_cycle;Signal;HPM_P1;HPM_P2
2022/12/22 03:27:30;;;;;;;1.15;0.50;;;;;;;12.84;40.69;98558.06;6042923;23;20018;-87
2022/12/22 03:29:59;;;;;;;0.75;0.40;;;;;;;12.61;40.98;98534.13;6015522;23;20011;-87
2022/12/22 03:32:25;;;;;;;0.70;0.32;;;;;;;12.61;41.15;98523.41;6015392;23;20007;-87
2022/12/22 03:34:51;;;;;;;1.92;0.90;;;;;;;12.60;40.88;98517.25;6015324;23;20066;-88
2022/12/22 03:37:16;;;;;;;2.17;0.50;;;;;;;12.70;41.03;98532.69;6015326;23;20034;-87
2022/12/22 03:39:42;;;;;;;1.00;0.40;;;;;;;12.66;41.12;98520.81;6014438;23;20042;-87
2022/12/22 03:47:49;;;;;;;1.75;0.50;;;;;;;12.68;40.45;98534.78;5987475;23;20064;-88
2022/12/22 03:50:15;;;;;;;1.20;0.50;;;;;;;12.63;40.78;98514.09;6016076;23;20011;-88
2022/12/22 03:52:40;;;;;;;1.27;0.45;;;;;;;12.56;40.67;98506.22;6015702;23;20078;-87
2022/12/22 03:55:07;;;;;;;0.82;0.55;;;;;;;12.85;41.06;98557.00;6016277;23;20123;-88
2022/12/22 03:57:32;;;;;;;2.75;0.70;;;;;;;12.76;40.98;98529.81;6016019;23;20090;-87
2022/12/22 03:59:58;;;;;;;0.95;0.40;;;;;;;12.70;40.78;98519.28;6015260;23;20407;-88
2022/12/22 04:02:24;;;;;;;2.25;0.60;;;;;;;12.58;40.99;98504.09;6015421;23;20078;-87
2022/12/22 04:04:50;;;;;;;1.80;0.47;;;;;;;12.64;40.93;98520.25;6014489;23;20291;-87
2022/12/22 04:07:15;;;;;;;1.40;0.57;;;;;;;12.61;40.83;98507.34;6016133;23;20021;-87
2022/12/22 04:12:53;;;;;;;1.77;0.60;;;;;;;12.79;40.63;98533.84;6016007;23;20034;-87
2022/12/22 04:15:11;;;;;;;2.08;0.55;;;;;;;12.67;40.39;98528.59;6042784;23;20109;-88
2022/12/22 04:17:36;;;;;;;0.73;0.40;;;;;;;12.69;40.09;98518.44;6015847;23;20011;-87
2022/12/22 04:20:02;;;;;;;0.63;0.40;;;;;;;12.59;40.46;98516.44;6015660;23;20010;-87
2022/12/22 04:22:28;;;;;;;1.30;0.50;;;;;;;12.53;40.51;98506.69;6038930;23;20349;-87
2022/12/22 04:24:54;;;;;;;1.83;0.55;;;;;;;12.61;40.88;98515.38;6014276;23;20027;-87
2022/12/22 04:27:20;;;;;;;1.25;0.70;;;;;;;12.56;40.70;98511.56;6014109;23;20023;-87
2022/12/22 04:29:45;;;;;;;1.23;0.57;;;;;;;12.75;40.40;98536.22;6014291;23;20007;-87
2022/12/22 04:32:14;;;;;;;2.15;0.60;;;;;;;12.77;40.42;98527.94;6015593;23;20077;-87
2022/12/22 04:34:42;;;;;;;1.83;0.50;;;;;;;12.82;40.39;98546.78;6039492;23;20007;-87
2022/12/22 04:37:08;;;;;;;1.98;0.63;;;;;;;12.75;40.68;98536.22;6015527;23;20104;-87
2022/12/22 04:39:34;;;;;;;1.80;0.60;;;;;;;12.68;40.37;98524.06;6015158;23;20432;-87
2022/12/22 04:42:01;;;;;;;2.03;0.60;;;;;;;12.62;40.64;98525.84;6015785;23;20421;-87
2022/12/22 04:44:26;;;;;;;1.33;0.60;;;;;;;12.69;40.54;98531.03;6015353;23;20006;-87
2022/12/22 04:46:52;;;;;;;2.00;0.65;;;;;;;12.72;40.67;98547.44;6015179;23;20310;-87
2022/12/22 04:49:18;;;;;;;0.75;0.40;;;;;;;12.61;40.77;98528.78;6015752;23;20019;-87
2022/12/22 04:51:44;;;;;;;0.93;0.50;;;;;;;12.57;40.66;98517.75;6015943;23;20015;-87
2022/12/22 04:54:10;;;;;;;2.10;0.45;;;;;;;12.68;40.36;98535.59;6015554;23;19995;-87
2022/12/22 04:56:36;;;;;;;0.88;0.40;;;;;;;12.75;40.81;98546.16;6015364;23;20022;-87
2022/12/22 04:59:01;;;;;;;1.88;0.68;;;;;;;12.75;40.40;98546.94;6014561;23;20021;-87
2022/12/22 05:01:27;;;;;;;1.85;0.60;;;;;;;12.61;40.29;98528.78;6015543;23;20015;-87
2022/12/22 05:03:53;;;;;;;1.95;0.43;;;;;;;12.75;40.28;98554.19;6015749;23;20037;-87
2022/12/22 05:06:19;;;;;;;2.65;0.77;;;;;;;12.57;39.94;98518.56;6015574;23;20014;-87
2022/12/22 05:08:44;;;;;;;1.20;0.68;;;;;;;12.54;39.97;98519.06;6014674;23;20007;-87
2022/12/22 05:11:10;;;;;;;2.65;0.90;;;;;;;12.64;40.35;98533.66;6015414;23;19998;-87
2022/12/22 05:13:36;;;;;;;1.10;0.60;;;;;;;12.58;40.72;98540.81;6015625;23;19999;-87
2022/12/22 05:16:06;;;;;;;0.98;0.60;;;;;;;12.72;40.87;98562.72;6015008;23;20010;-87
2022/12/22 05:18:35;;;;;;;1.50;0.63;;;;;;;12.77;40.84;98578.88;6015841;23;20014;-87
2022/12/22 05:21:03;;;;;;;1.90;0.70;;;;;;;12.67;40.48;98550.03;6015219;23;20015;-87
2022/12/22 05:23:29;;;;;;;3.28;0.60;;;;;;;12.81;40.26;98558.53;6015672;23;20006;-87
2022/12/22 05:25:54;;;;;;;2.28;0.77;;;;;;;12.72;40.35;98554.69;6015262;23;20663;-87
2022/12/22 05:28:20;;;;;;;2.67;0.70;;;;;;;12.70;40.36;98532.69;6015065;23;20770;-87
2022/12/22 05:30:46;;;;;;;1.85;0.68;;;;;;;12.78;40.48;98545.66;6014722;23;20030;-87
2022/12/22 05:33:12;;;;;;;2.38;0.98;;;;;;;12.55;40.22;98515.31;6015462;23;20011;-87
2022/12/22 05:35:37;;;;;;;2.65;0.68;;;;;;;12.80;40.45;98562.31;6015502;23;20065;-87
2022/12/22 05:38:03;;;;;;;1.58;0.50;;;;;;;12.68;40.83;98550.88;6015201;23;20447;-87
2022/12/22 05:40:29;;;;;;;1.67;0.60;;;;;;;12.65;40.69;98540.63;6014858;23;20434;-87
2022/12/22 05:42:54;;;;;;;1.83;0.70;;;;;;;12.55;40.79;98542.09;6013565;23;19994;-86
2022/12/22 05:45:21;;;;;;;2.22;0.70;;;;;;;12.65;40.95;98549.47;6037791;23;20010;-87
2022/12/22 05:47:49;;;;;;;3.08;0.70;;;;;;;12.74;40.62;98561.41;6038315;23;20368;-87
2022/12/22 05:50:17;;;;;;;2.45;0.80;;;;;;;12.68;40.74;98545.50;6012806;23;20010;-87
2022/12/22 05:52:43;;;;;;;1.13;0.40;;;;;;;12.67;40.61;98554.59;6013302;23;20347;-87
2022/12/22 05:55:09;;;;;;;1.45;0.60;;;;;;;12.73;40.61;98564.34;6011405;23;20007;-87
2022/12/22 05:57:35;;;;;;;2.83;0.68;;;;;;;12.51;40.75;98535.63;6011916;23;20018;-87
2022/12/22 06:00:00;;;;;;;2.50;0.70;;;;;;;12.86;40.60;98577.38;6011056;23;20038;-87
2022/12/22 06:02:26;;;;;;;1.48;0.60;;;;;;;12.60;40.80;98549.41;6011164;23;20019;-87
2022/12/22 06:04:52;;;;;;;1.98;0.68;;;;;;;12.49;41.02;98547.66;6011293;23;20468;-87
2022/12/22 06:07:21;;;;;;;2.50;0.80;;;;;;;12.58;40.73;98555.00;6012077;23;20043;-87
2022/12/22 06:09:47;;;;;;;1.48;0.80;;;;;;;12.66;40.90;98567.19;6012308;23;20014;-87
2022/12/22 06:12:13;;;;;;;2.63;0.63;;;;;;;12.51;40.72;98532.94;6013756;23;20010;-87
2022/12/22 06:14:43;;;;;;;4.05;1.10;;;;;;;12.52;40.48;98534.56;6013502;23;20330;-87
2022/12/22 06:17:11;;;;;;;1.45;0.50;;;;;;;12.69;40.63;98564.00;6014709;23;20007;-87
2022/12/22 06:19:37;;;;;;;2.60;1.02;;;;;;;12.61;40.81;98548.38;6036987;23;20018;-87
2022/12/22 06:22:02;;;;;;;2.05;0.60;;;;;;;12.65;40.48;98554.03;6012961;23;20011;-87
2022/12/22 06:24:28;;;;;;;1.42;0.60;;;;;;;12.69;40.65;98563.19;6012338;23;20011;-87
2022/12/22 06:26:54;;;;;;;1.73;0.52;;;;;;;12.54;40.46;98540.50;6012577;23;20021;-87
2022/12/22 06:29:19;;;;;;;2.17;0.70;;;;;;;12.59;40.63;98556.66;6013835;23;20014;-87
2022/12/22 06:31:45;;;;;;;1.65;0.63;;;;;;;12.51;40.91;98546.34;6014262;23;20414;-87
2022/12/22 06:34:11;;;;;;;2.92;1.10;;;;;;;12.81;40.65;98582.66;6014092;23;20064;-87
2022/12/22 06:36:37;;;;;;;2.78;0.70;;;;;;;12.62;40.73;98552.66;6014077;23;20015;-87
2022/12/22 06:39:06;;;;;;;2.55;0.80;;;;;;;12.68;40.67;98556.22;6015141;23;20077;-87
2022/12/22 06:44:16;;;;;;;2.03;1.00;;;;;;;12.63;40.51;98545.44;6061995;23;20046;-87
2022/12/22 06:46:41;;;;;;;2.05;0.93;;;;;;;12.81;40.81;98566.59;6036882;23;20007;-87
2022/12/22 06:49:07;;;;;;;2.50;0.90;;;;;;;12.77;40.03;98565.47;6014032;23;20011;-87
2022/12/22 06:51:33;;;;;;;1.85;0.73;;;;;;;12.80;40.64;98578.38;6015162;23;20013;-87
2022/12/22 06:54:01;;;;;;;1.48;0.68;;;;;;;12.72;40.72;98570.75;6038654;23;20003;-87
2022/12/22 06:56:29;;;;;;;4.13;0.90;;;;;;;12.80;40.78;98582.91;6013444;23;20491;-87
2022/12/22 06:58:55;;;;;;;5.50;1.10;;;;;;;12.71;40.66;98566.44;6037205;23;20018;-87
2022/12/22 07:01:21;;;;;;;2.85;0.80;;;;;;;12.73;40.77;98559.78;6061377;23;20314;-87
2022/12/22 07:03:47;;;;;;;1.70;0.68;;;;;;;12.76;40.51;98563.84;6038938;23;20010;-87
2022/12/22 07:06:18;;;;;;;2.90;0.85;;;;;;;12.78;40.64;98564.44;6015359;23;20012;-87
2022/12/22 07:08:45;;;;;;;3.17;0.98;;;;;;;12.77;40.81;98563.59;6037517;23;20006;-87
2022/12/22 07:11:10;;;;;;;3.25;0.88;;;;;;;12.80;40.56;98556.09;6013156;23;20007;-87
2022/12/22 07:13:36;;;;;;;1.00;0.63;;;;;;;12.77;40.64;98560.09;6036974;23;20010;-87
2022/12/22 07:16:03;;;;;;;2.00;0.70;;;;;;;12.77;40.72;98565.47;6037201;23;20007;-87
2022/12/22 07:18:30;;;;;;;2.65;0.85;;;;;;;12.43;40.65;98524.50;6036927;23;20007;-87
2022/12/22 07:20:59;;;;;;;2.22;0.65;;;;;;;12.76;40.69;98571.88;6035680;23;20026;-87
2022/12/22 07:23:25;;;;;;;3.42;1.13;;;;;;;12.74;40.75;98560.59;6037156;23;20003;-87
2022/12/22 07:25:51;;;;;;;2.75;0.80;;;;;;;12.72;41.15;98568.88;6036752;23;20041;-87
2022/12/22 07:28:16;;;;;;;2.78;0.98;;;;;;;12.81;40.85;98577.31;6060589;23;20347;-87
2022/12/22 07:30:42;;;;;;;3.47;0.95;;;;;;;12.79;40.63;98568.72;6012438;23;20003;-87
2022/12/22 07:33:08;;;;;;;2.15;0.90;;;;;;;12.75;40.81;98552.31;6036832;23;20011;-87
2022/12/22 07:35:33;;;;;;;3.17;0.73;;;;;;;12.81;40.61;98561.22;6012557;23;20093;-87
2022/12/22 07:37:59;;;;;;;4.35;1.10;;;;;;;12.81;40.63;98555.06;6012442;23;20011;-87
2022/12/22 07:40:25;;;;;;;3.42;0.95;;;;;;;12.79;40.17;98557.97;6012577;23;20019;-87
2022/12/22 07:42:55;;;;;;;3.42;1.20;;;;;;;12.77;40.51;98560.91;6012381;23;20014;-87
2022/12/22 07:45:21;;;;;;;2.35;0.90;;;;;;;12.80;40.51;98564.16;6060242;23;20086;-87
2022/12/22 07:47:47;;;;;;;3.28;1.13;;;;;;;12.75;40.54;98570.28;6036445;23;20077;-87
2022/12/22 07:50:31;;;;;;;4.18;1.20;;;;;;;12.77;40.95;98582.34;6012446;23;20469;-87
2022/12/22 07:52:59;;;;;;;4.68;1.13;;;;;;;12.80;40.87;98591.78;6018775;23;20037;-87
2022/12/22 07:55:25;;;;;;;4.50;1.15;;;;;;;12.78;40.56;98575.94;6036495;23;20090;-87
2022/12/22 07:57:54;;;;;;;2.60;0.90;;;;;;;12.82;40.76;98578.94;6036881;23;20086;-87
2022/12/22 08:00:20;;;;;;;4.05;1.30;;;;;;;12.81;40.81;98582.66;6013397;23;20069;-87
2022/12/22 08:02:53;;;;;;;4.30;1.23;;;;;;;12.79;40.47;98574.06;6035979;23;20019;-87
2022/12/22 08:05:19;;;;;;;3.05;0.82;;;;;;;12.74;40.34;98576.69;6013415;23;20007;-87
2022/12/22 08:07:46;;;;;;;2.58;0.90;;;;;;;12.73;40.45;98567.84;6036461;23;20015;-87
2022/12/22 08:10:12;;;;;;;4.50;1.15;;;;;;;12.80;40.31;98574.88;6013093;23;20519;-87
2022/12/22 08:12:38;;;;;;;3.25;1.20;;;;;;;12.75;40.34;98575.63;6012613;23;20085;-87
2022/12/22 08:15:06;;;;;;;4.38;0.90;;;;;;;12.74;40.44;98576.69;6013310;23;20022;-87
2022/12/22 08:17:41;;;;;;;4.75;1.10;;;;;;;12.74;40.70;98576.69;6012734;23;20410;-87
2022/12/22 08:20:07;;;;;;;1.75;0.80;;;;;;;12.50;40.91;98547.38;6037030;23;20015;-88
2022/12/22 08:22:33;;;;;;;3.08;0.98;;;;;;;12.40;40.90;98523.16;6012381;23;20416;-87
2022/12/22 08:24:59;;;;;;;4.93;1.20;;;;;;;12.50;40.51;98528.63;6011971;23;20011;-87
2022/12/22 08:27:28;;;;;;;2.90;0.75;;;;;;;12.76;40.60;98564.66;6012618;23;20013;-87
2022/12/22 08:29:56;;;;;;;3.75;1.05;;;;;;;12.62;40.37;98533.88;6035947;23;20011;-87
2022/12/22 08:32:21;;;;;;;5.72;1.27;;;;;;;12.65;40.63;98567.44;6036338;23;20460;-87
2022/12/22 08:34:49;;;;;;;2.72;1.10;;;;;;;12.67;40.53;98554.59;6012014;23;20069;-87
2022/12/22 08:37:15;;;;;;;3.00;1.17;;;;;;;12.66;40.44;98548.44;6012302;23;20011;-87
2022/12/22 08:39:42;;;;;;;2.72;0.95;;;;;;;12.63;40.24;98537.41;6012021;23;20512;-87
2022/12/22 08:42:08;;;;;;;3.22;0.90;;;;;;;12.66;40.63;98548.44;6012373;23;20074;-87
2022/12/22 08:44:36;;;;;;;2.65;0.90;;;;;;;12.68;40.86;98553.56;6036137;23;20085;-87
2022/12/22 08:47:02;;;;;;;3.95;0.80;;;;;;;12.69;40.87;98552.47;6036162;23;20011;-87
2022/12/22 08:49:27;;;;;;;3.63;1.08;;;;;;;12.66;40.71;98537.72;6062814;23;20013;-87
2022/12/22 08:51:53;;;;;;;4.57;1.35;;;;;;;12.57;40.71;98523.94;6034224;23;20110;-87
2022/12/22 08:54:19;;;;;;;5.10;1.35;;;;;;;12.71;40.72;98528.91;6012472;23;20022;-87
2022/12/22 08:56:45;;;;;;;2.25;0.82;;;;;;;12.63;40.54;98518.66;6035867;23;20010;-87
2022/12/22 08:59:10;;;;;;;3.55;1.00;;;;;;;12.70;40.40;98528.13;6012870;23;20048;-87
2022/12/22 09:01:37;;;;;;;3.55;0.95;;;;;;;12.58;40.40;98512.13;6037275;23;20026;-88
2022/12/22 09:04:03;;;;;;;5.65;1.05;;;;;;;12.72;40.45;98535.91;6036643;23;20030;-87
2022/12/22 09:06:29;;;;;;;2.80;0.98;;;;;;;12.73;40.69;98542.91;6012544;23;20419;-88
2022/12/22 09:08:56;;;;;;;4.47;1.02;;;;;;;12.61;40.81;98529.59;6036228;23;20086;-88
2022/12/22 09:11:22;;;;;;;3.95;1.05;;;;;;;12.70;40.64;98530.00;6059721;23;20011;-87
2022/12/22 09:13:51;;;;;;;2.70;0.80;;;;;;;12.68;40.60;98519.50;6035736;23;20015;-87
2022/12/22 09:16:17;;;;;;;2.08;1.00;;;;;;;12.66;40.70;98523.50;6060342;23;20067;-87
2022/12/22 09:18:43;;;;;;;3.00;0.90;;;;;;;12.72;40.63;98527.88;6012187;23;20046;-88
2022/12/22 09:21:09;;;;;;;3.13;0.95;;;;;;;12.69;40.47;98531.03;6037250;23;20010;-87
2022/12/22 09:23:34;;;;;;;3.42;1.02;;;;;;;12.68;40.82;98529.44;6036856;23;20370;-87
2022/12/22 09:26:06;;;;;;;3.08;1.10;;;;;;;12.65;40.64;98524.56;6037195;23;20003;-88
2022/12/22 09:28:32;;;;;;;3.95;0.90;;;;;;;12.68;40.54;98524.06;6036801;23;20432;-88
2022/12/22 09:30:58;;;;;;;3.10;0.95;;;;;;;12.61;40.86;98518.06;6012754;23;20014;-88
2022/12/22 09:33:25;;;;;;;5.85;1.30;;;;;;;12.54;40.83;98513.69;6037107;23;20013;-88
2022/12/22 09:35:51;;;;;;;2.83;0.93;;;;;;;12.43;40.96;98487.81;6037096;23;20007;-88
2022/12/22 09:38:16;;;;;;;3.05;1.02;;;;;;;12.68;40.69;98521.41;6036942;23;20026;-87
2022/12/22 09:40:42;;;;;;;3.85;1.13;;;;;;;12.52;40.89;98497.06;6061914;23;20017;-88
2022/12/22 09:43:13;;;;;;;2.38;1.00;;;;;;;12.64;40.88;98520.25;6037412;23;20010;-87
2022/12/22 09:45:38;;;;;;;3.47;1.20;;;;;;;12.66;40.72;98510.09;6036678;23;20018;-87
2022/12/22 09:48:05;;;;;;;4.45;1.13;;;;;;;12.66;40.52;98515.44;6055633;23;20003;-87
2022/12/22 09:50:31;;;;;;;2.58;1.10;;;;;;;12.50;40.66;98491.13;6010092;23;20007;-87
2022/12/22 09:53:01;;;;;;;3.47;1.10;;;;;;;12.53;40.83;98485.25;6010137;23;20101;-88
2022/12/22 09:55:37;;;;;;;2.95;1.27;;;;;;;12.61;40.75;98508.16;6010885;23;20006;-87
2022/12/22 09:58:04;;;;;;;2.53;0.80;;;;;;;12.63;41.08;98507.94;6034474;23;20165;-88
2022/12/22 10:00:32;;;;;;;2.80;1.00;;;;;;;12.58;40.90;98497.94;6034645;23;20105;-88
2022/12/22 10:03:13;;;;;;;2.47;1.00;;;;;;;12.68;40.59;98499.94;6010289;23;20053;-87
2022/12/22 10:06:22;;;;;;;3.92;0.88;;;;;;;12.64;40.72;98496.13;6058680;23;20030;-87
2022/12/22 10:08:48;;;;;;;1.73;0.80;;;;;;;12.47;40.71;98474.72;6058337;23;20021;-87
2022/12/22 10:11:15;;;;;;;2.03;0.80;;;;;;;12.40;40.93;98458.84;6011345;23;20014;-87
2022/12/22 10:13:41;;;;;;;2.83;0.93;;;;;;;12.51;40.79;98476.66;6010660;23;20371;-87
2022/12/22 10:16:36;;;;;;;3.13;1.10;;;;;;;12.56;40.74;98474.06;6012188;23;20014;-87
2022/12/22 10:19:08;;;;;;;;;;;;;;;12.68;40.49;98491.91;6019137;23;20018;-87
2022/12/22 10:21:34;;;;;;;3.08;0.88;;;;;;;12.39;40.71;98451.84;6037219;23;19913;-87
2022/12/22 10:24:00;;;;;;;2.78;0.65;;;;;;;12.51;40.67;98475.88;6012995;23;20086;-87
2022/12/22 10:26:31;;;;;;;2.53;1.20;;;;;;;12.30;40.57;98421.22;6013507;23;20021;-87
2022/12/22 10:29:05;;;;;;;2.40;0.90;;;;;;;12.40;40.82;98445.47;6013076;23;20010;-87
2022/12/22 10:31:32;;;;;;;4.22;1.10;;;;;;;12.43;40.78;98462.88;6013523;23;20018;-87
2022/12/22 10:34:15;;;;;;;2.05;0.90;;;;;;;12.43;40.93;98452.97;6013618;23;20097;-87
2022/12/22 10:36:52;;;;;;;2.65;0.90;;;;;;;12.52;40.56;98469.44;6013838;23;20007;-87
2022/12/22 10:39:22;;;;;;;3.92;1.23;;;;;;;12.43;40.62;98450.28;6014040;23;20259;-87
2022/12/22 10:41:48;;;;;;;2.45;1.00;;;;;;;12.59;40.71;98462.84;6013523;23;20039;-87
2022/12/22 10:44:14;;;;;;;1.60;0.63;;;;;;;12.66;40.87;98464.53;6013479;23;20008;-87
2022/12/22 10:46:48;;;;;;;3.90;1.02;;;;;;;12.60;40.70;98463.66;6061156;23;20022;-87
2022/12/22 10:49:21;;;;;;;2.72;0.80;;;;;;;12.43;41.11;98458.34;6014192;23;20066;-87
2022/12/22 10:51:53;;;;;;;2.72;1.17;;;;;;;12.41;40.88;98447.06;6013411;23;20444;-86
2022/12/22 10:54:32;;;;;;;3.47;1.15;;;;;;;12.51;40.79;98476.66;6013962;23;20042;-86
2022/12/22 10:57:06;;;;;;;2.53;0.80;;;;;;;12.36;40.97;98455.03;6013285;23;20074;-86
2022/12/22 10:59:32;;;;;;;3.97;0.90;;;;;;;12.46;40.82;98473.13;6035974;23;20154;-86
2022/12/22 11:02:19;;;;;;;3.22;1.15;;;;;;;12.30;40.56;98437.28;6012830;23;20023;-87
2022/12/22 11:04:51;;;;;;;2.28;0.77;;;;;;;12.31;40.78;98441.56;6036902;23;20654;-87
2022/12/22 11:07:17;;;;;;;3.08;0.73;;;;;;;12.24;40.61;98433.69;6014745;23;20007;-87
2022/12/22 11:09:42;;;;;;;2.28;0.80;;;;;;;12.39;40.83;98460.69;6013103;23;20009;-87
2022/12/22 11:12:25;;;;;;;2.38;1.05;;;;;;;12.57;41.03;98489.09;6013439;23;20013;-86
2022/12/22 11:15:11;;;;;;;1.55;0.80;;;;;;;12.48;41.04;98482.53;6037323;23;20031;-86
2022/12/22 11:18:17;;;;;;;3.13;0.80;;;;;;;12.53;41.01;98482.59;6042732;23;20007;-86
2022/12/22 11:21:00;;;;;;;2.72;1.02;;;;;;;12.33;40.80;98453.66;6041715;23;20030;-86
2022/12/22 11:24:05;;;;;;;2.45;0.80;;;;;;;12.43;40.83;98471.72;6038804;23;20022;-86
2022/12/22 11:26:33;;;;;;;2.80;0.80;;;;;;;12.64;40.68;98501.50;6042869;23;20392;-86
2022/12/22 11:29:17;;;;;;;1.58;0.65;;;;;;;12.64;40.77;98501.50;6061766;23;20014;-86
2022/12/22 11:32:08;;;;;;;1.80;0.65;;;;;;;12.40;40.57;98474.91;6038265;23;20088;-86
2022/12/22 11:34:56;;;;;;;1.95;0.70;;;;;;;12.59;40.64;98505.72;6040237;23;20011;-86
2022/12/22 11:37:48;;;;;;;2.40;0.82;;;;;;;12.57;40.95;98507.84;6042091;23;20015;-86
2022/12/22 11:40:17;;;;;;;2.60;1.10;;;;;;;12.58;40.64;98514.81;6038973;23;20065;-86
2022/12/22 11:42:45;;;;;;;1.45;0.70;;;;;;;12.59;40.79;98508.41;6062343;23;20015;-86
2022/12/22 11:45:38;;;;;;;1.77;0.70;;;;;;;12.39;40.67;98473.28;6062270;23;20038;-86
2022/12/22 11:48:26;;;;;;;3.50;1.23;;;;;;;12.63;40.84;98507.94;6047676;23;20011;-86
2022/12/22 11:50:54;;;;;;;3.22;0.90;;;;;;;12.51;40.75;98494.63;6038676;23;20015;-86
2022/12/22 11:53:32;;;;;;;2.05;0.77;;;;;;;12.48;40.70;98490.56;6015754;23;20017;-86
2022/12/22 11:56:19;;;;;;;4.13;0.85;;;;;;;12.63;40.76;98507.94;6039693;23;20313;-86
2022/12/22 11:59:36;;;;;;;1.40;0.63;;;;;;;12.31;40.59;98469.16;6060909;23;20220;-86
2022/12/22 12:02:08;;;;;;;1.27;0.70;;;;;;;12.34;41.09;98481.25;5999341;23;20618;-86
2022/12/22 12:04:52;;;;;;;2.13;0.80;;;;;;;12.59;40.89;98505.72;6037855;23;20029;-86
2022/12/22 12:07:38;;;;;;;2.42;0.98;;;;;;;12.59;41.05;98503.06;6038630;23;20010;-86
2022/12/22 12:10:40;;;;;;;2.67;0.80;;;;;;;12.62;40.76;98503.59;6062254;23;20013;-86
2022/12/22 12:13:41;;;;;;;1.88;0.73;;;;;;;12.62;40.88;98499.06;6038271;23;20345;-86
2022/12/22 12:16:42;;;;;;;3.45;1.00;;;;;;;12.63;40.58;98503.38;6001657;23;20040;-86
2022/12/22 12:19:48;;;;;;;4.03;0.93;;;;;;;12.62;40.50;98500.94;6042175;23;20011;-86
2022/12/22 12:22:31;;;;;;;2.30;0.82;;;;;;;12.32;40.79;98460.06;6037627;23;20003;-86
2022/12/22 12:25:01;;;;;;;1.88;0.80;;;;;;;12.33;40.96;98476.94;6013823;23;20015;-86
2022/12/22 12:27:52;;;;;;;2.60;1.00;;;;;;;12.63;40.73;98510.59;6013739;23;20031;-86
2022/12/22 12:30:19;;;;;;;2.08;0.70;;;;;;;12.39;40.80;98474.09;6037599;23;20018;-86
2022/12/22 12:33:02;;;;;;;3.47;1.00;;;;;;;12.72;40.71;98503.75;6013919;23;20003;-86
2022/12/22 12:35:42;;;;;;;2.33;1.10;;;;;;;12.49;40.66;98467.28;6061800;23;20022;-86
2022/12/22 12:38:35;;;;;;;2.97;0.80;;;;;;;12.46;40.83;98487.31;6037585;23;20021;-86
2022/12/22 12:41:23;;;;;;;3.08;0.63;;;;;;;12.51;40.93;98492.75;6040788;23;20107;-86
2022/12/22 12:43:49;;;;;;;1.60;0.80;;;;;;;12.46;40.97;98487.31;6014929;23;20345;-86
2022/12/22 12:46:51;;;;;;;1.38;0.50;;;;;;;12.63;40.82;98500.69;6013784;23;20003;-86
2022/12/22 12:49:35;;;;;;;3.53;1.00;;;;;;;12.64;40.80;98499.63;6061273;23;20393;-86
2022/12/22 12:52:05;;;;;;;1.80;0.57;;;;;;;12.31;41.07;98471.03;6061076;23;20460;-86
2022/12/22 12:54:46;;;;;;;1.73;0.65;;;;;;;12.58;40.81;98504.09;6014499;23;20412;-86
2022/12/22 12:57:47;;;;;;;2.10;0.82;;;;;;;12.36;41.15;98473.78;6013969;23;20007;-86
2022/12/22 13:00:42;;;;;;;1.52;0.80;;;;;;;12.63;40.99;98500.69;6017989;23;20160;-86
2022/12/22 13:03:24;;;;;;;2.50;0.70;;;;;;;12.42;40.75;98461.25;6019469;23;20023;-86
2022/12/22 13:05:51;;;;;;;2.08;0.70;;;;;;;12.38;40.90;98477.00;6039517;23;20018;-86
2022/12/22 13:08:23;;;;;;;1.13;0.60;;;;;;;12.64;40.69;98498.81;6013317;23;20285;-86
2022/12/22 13:10:58;;;;;;;2.95;0.63;;;;;;;12.62;40.79;98498.25;6035419;23;20017;-86
2022/12/22 13:13:23;;;;;;;3.20;0.75;;;;;;;12.54;40.89;98500.31;6059919;23;20011;-86
2022/12/22 13:15:58;;;;;;;2.70;0.90;;;;;;;12.62;40.91;98509.78;6060641;23;20017;-85
2022/12/22 13:18:24;;;;;;;2.17;0.60;;;;;;;12.64;41.02;98505.00;6060097;23;20014;-86
2022/12/22 13:21:21;;;;;;;1.48;0.65;;;;;;;12.71;40.84;98496.75;6058536;23;20017;-86
2022/12/22 13:24:15;;;;;;;1.65;0.60;;;;;;;12.71;40.87;98497.59;6031950;23;20372;-86
2022/12/22 13:26:44;;;;;;;2.30;0.70;;;;;;;12.49;40.93;98462.72;6059675;23;20076;-86
2022/12/22 13:29:25;;;;;;;1.40;0.70;;;;;;;12.67;40.91;98492.97;6012304;23;20014;-86
2022/12/22 13:32:03;;;;;;;2.00;0.80;;;;;;;12.38;40.74;98467.13;6036058;23;20038;-86
2022/12/22 13:35:03;;;;;;;1.85;0.60;;;;;;;12.55;40.80;98482.34;6013814;23;20015;-86
2022/12/22 13:37:37;;;;;;;1.65;0.80;;;;;;;12.45;40.87;98458.88;6036149;23;20015;-86
2022/12/22 13:40:08;;;;;;;1.13;0.75;;;;;;;12.35;40.83;98450.75;6014247;23;20070;-86
2022/12/22 13:42:41;;;;;;;0.82;0.68;;;;;;;12.41;40.84;98457.78;6005914;23;20447;-86
2022/12/22 13:45:14;;;;;;;2.30;0.85;;;;;;;12.46;41.14;98487.31;6031901;23;20011;-86
2022/12/22 13:47:41;;;;;;;1.27;0.65;;;;;;;12.49;40.94;98478.00;6008822;23;20037;-86
2022/12/22 13:50:18;;;;;;;1.73;0.70;;;;;;;12.47;41.12;98470.19;6008543;23;20045;-85
2022/12/22 13:52:44;;;;;;;1.20;0.68;;;;;;;12.52;41.18;98483.66;6008041;23;20007;-86
2022/12/22 13:55:15;;;;;;;1.13;0.60;;;;;;;12.35;40.60;98448.88;6008559;23;20013;-86
2022/12/22 13:57:40;;;;;;;1.17;0.60;;;;;;;12.55;40.86;98482.34;6009248;23;20436;-86
2022/12/22 14:00:17;;;;;;;3.10;0.60;;;;;;;12.32;40.93;98461.94;6008380;23;20014;-86
2022/12/22 14:02:43;;;;;;;0.80;0.50;;;;;;;12.66;40.79;98510.09;6007611;23;20102;-86
2022/12/22 14:05:10;;;;;;;1.00;0.60;;;;;;;12.37;40.88;98460.13;6030695;23;20033;-86
2022/12/22 14:07:36;;;;;;;1.80;0.65;;;;;;;12.42;40.95;98471.97;6008479;23;20776;-86
2022/12/22 14:10:05;;;;;;;1.88;0.70;;;;;;;12.50;41.21;98485.75;6008141;23;20015;-85
2022/12/22 14:12:42;;;;;;;1.67;0.60;;;;;;;12.37;40.95;98459.34;6031763;23;20038;-86
2022/12/22 14:15:11;;;;;;;1.02;0.63;;;;;;;12.36;40.54;98457.69;6010314;23;20360;-86
2022/12/22 14:17:37;;;;;;;0.80;0.50;;;;;;;12.42;40.94;98471.97;6008027;23;20007;-86
2022/12/22 14:20:36;;;;;;;1.52;0.60;;;;;;;12.40;40.69;98464.22;6007826;23;20021;-86
2022/12/22 14:23:27;;;;;;;2.40;0.80;;;;;;;12.66;40.59;98508.25;6011980;23;20018;-86
2022/12/22 14:25:53;;;;;;;2.33;0.70;;;;;;;12.47;40.71;98491.63;6049697;23;20011;-86
2022/12/22 14:28:25;;;;;;;1.40;0.60;;;;;;;12.39;40.64;98474.09;6007689;23;20452;-86
2022/12/22 14:30:58;;;;;;;3.10;0.77;;;;;;;12.41;40.64;98476.53;6007538;23;20015;-86
2022/12/22 14:33:25;;;;;;;2.03;0.50;;;;;;;12.58;40.92;98517.50;6007149;23;20492;-86
2022/12/22 14:36:04;;;;;;;1.33;0.60;;;;;;;12.30;41.17;98469.41;6054548;23;20007;-86
2022/12/22 14:38:37;;;;;;;1.63;0.63;;;;;;;12.53;40.73;98493.31;6009787;23;20015;-86
2022/12/22 14:44:02;;;;;;;1.95;0.50;;;;;;;12.62;41.13;98517.81;6036974;23;20021;-85
2022/12/22 14:46:28;;;;;;;0.70;0.43;;;;;;;12.63;40.81;98506.03;6008121;23;20014;-86
2022/12/22 14:48:54;;;;;;;1.80;0.60;;;;;;;12.42;40.43;98463.94;6007400;23;20074;-86
2022/12/22 14:51:20;;;;;;;1.98;0.60;;;;;;;12.42;40.51;98464.75;6009015;23;20474;-85
2022/12/22 14:53:56;;;;;;;1.00;0.40;;;;;;;12.54;40.74;98486.09;6008077;23;20321;-86
2022/12/22 14:56:22;;;;;;;0.90;0.50;;;;;;;12.55;40.64;98496.53;6009059;23;20376;-86
2022/12/22 14:58:48;;;;;;;1.45;0.65;;;;;;;12.57;40.85;98502.50;6031927;23;20007;-86
2022/12/22 15:01:29;;;;;;;2.03;0.63;;;;;;;12.43;41.10;98477.09;6008800;23;20027;-86
2022/12/22 15:04:04;;;;;;;1.88;0.70;;;;;;;12.52;40.81;98489.03;6011383;23;20022;-86
2022/12/22 15:06:40;;;;;;;1.10;0.50;;;;;;;12.37;40.79;98464.69;6009076;23;20372;-86
2022/12/22 15:09:07;;;;;;;2.17;0.65;;;;;;;12.68;40.92;98519.50;6009217;23;20015;-86
2022/12/22 15:11:34;;;;;;;1.83;0.60;;;;;;;12.58;40.80;98497.94;6056338;23;20019;-86
2022/12/22 15:14:00;;;;;;;2.17;0.70;;;;;;;12.50;40.63;98484.94;6009525;23;20396;-86
2022/12/22 15:16:29;;;;;;;1.05;0.40;;;;;;;12.44;40.71;98470.69;6008255;23;20030;-86
2022/12/22 15:18:55;;;;;;;1.40;0.63;;;;;;;12.56;40.82;98497.38;6057952;23;20003;-86
2022/12/22 15:21:21;;;;;;;0.95;0.50;;;;;;;12.56;40.83;98495.50;6008441;23;20010;-86
2022/12/22 15:23:47;;;;;;;1.27;0.60;;;;;;;12.29;40.93;98455.19;6003429;23;20010;-86
2022/12/22 15:26:13;;;;;;;1.05;0.57;;;;;;;12.51;40.92;98483.91;6007386;23;20021;-86
2022/12/22 15:28:42;;;;;;;1.13;0.60;;;;;;;12.42;40.90;98478.16;6007977;23;20343;-86
2022/12/22 15:31:13;;;;;;;0.82;0.50;;;;;;;12.63;40.82;98505.25;6008020;23;20171;-86
2022/12/22 15:33:39;;;;;;;1.58;0.63;;;;;;;12.68;40.51;98502.63;6055776;23;20017;-86